sensor_id;sensor_type;location;lat;lon;timestamp;P1;durP1;ratioP1;P2;durP2;ratioP2
39880;SDS011;25554;44.954;10.068;2023-07-31T00:02:06;25.40;;;16.58;;
39880;SDS011;25554;44.954;10.068;2023-07-31T00:04:33;21.67;;;17.45;;
39880;SDS011;25554;44.954;10.068;2023-07-31T00:07:00;21.58;;;16.58;;
39880;SDS011;25554;44.954;10.068;2023-07-31T00:09:26;20.38;;;17.05;;
39880;SDS011;25554;44.954;10.068;2023-07-31T00:11:53;16.60;;;14.52;;
39880;SDS011;25554;44.954;10.068;2023-07-31T00:14:19;15.95;;;14.35;;
39880;SDS011;25554;44.954;10.068;2023-07-31T00:16:46;15.95;;;13.93;;
39880;SDS011;25554;44.954;10.068;2023-07-31T00:19:12;14.38;;;12.95;;
39880;SDS011;25554;44.954;10.068;2023-07-31T00:21:39;18.85;;;14.50;;
39880;SDS011;25554;44.954;10.068;2023-07-31T00:24:05;19.92;;;15.40;;
39880;SDS011;25554;44.954;10.068;2023-07-31T00:26:32;17.52;;;15.73;;
39880;SDS011;25554;44.954;10.068;2023-07-31T00:28:58;17.13;;;15.43;;
39880;SDS011;25554;44.954;10.068;2023-07-31T00:31:25;18.27;;;16.17;;
39880;SDS011;25554;44.954;10.068;2023-07-31T00:33:52;18.67;;;16.77;;
39880;SDS011;25554;44.954;10.068;2023-07-31T00:36:18;19.63;;;16.05;;
39880;SDS011;25554;44.954;10.068;2023-07-31T00:38:45;18.10;;;15.63;;
39880;SDS011;25554;44.954;10.068;2023-07-31T00:41:11;17.88;;;16.17;;
39880;SDS011;25554;44.954;10.068;2023-07-31T00:43:38;21.48;;;18.55;;
39880;SDS011;25554;44.954;10.068;2023-07-31T00:46:04;19.63;;;17.50;;
39880;SDS011;25554;44.954;10.068;2023-07-31T00:48:31;19.77;;;17.67;;
39880;SDS011;25554;44.954;10.068;2023-07-31T00:50:58;21.52;;;19.38;;
39880;SDS011;25554;44.954;10.068;2023-07-31T00:53:26;23.30;;;20.80;;
39880;SDS011;25554;44.954;10.068;2023-07-31T00:55:53;23.65;;;20.50;;
39880;SDS011;25554;44.954;10.068;2023-07-31T00:58:20;25.35;;;22.15;;
39880;SDS011;25554;44.954;10.068;2023-07-31T01:00:46;24.98;;;20.42;;
39880;SDS011;25554;44.954;10.068;2023-07-31T01:03:14;22.17;;;19.40;;
39880;SDS011;25554;44.954;10.068;2023-07-31T01:13:33;23.77;;;18.60;;
39880;SDS011;25554;44.954;10.068;2023-07-31T01:15:59;19.38;;;17.40;;
39880;SDS011;25554;44.954;10.068;2023-07-31T01:18:26;22.92;;;18.25;;
39880;SDS011;25554;44.954;10.068;2023-07-31T01:20:54;21.88;;;18.92;;
39880;SDS011;25554;44.954;10.068;2023-07-31T01:23:42;23.77;;;18.48;;
39880;SDS011;25554;44.954;10.068;2023-07-31T01:26:36;22.98;;;18.42;;
39880;SDS011;25554;44.954;10.068;2023-07-31T01:31:35;21.63;;;19.42;;
39880;SDS011;25554;44.954;10.068;2023-07-31T01:34:05;21.92;;;19.02;;
39880;SDS011;25554;44.954;10.068;2023-07-31T01:36:35;19.17;;;17.20;;
39880;SDS011;25554;44.954;10.068;2023-07-31T01:39:02;19.95;;;17.67;;
39880;SDS011;25554;44.954;10.068;2023-07-31T01:41:30;21.83;;;18.83;;
39880;SDS011;25554;44.954;10.068;2023-07-31T01:43:56;20.77;;;18.58;;
39880;SDS011;25554;44.954;10.068;2023-07-31T01:46:23;24.17;;;18.13;;
39880;SDS011;25554;44.954;10.068;2023-07-31T01:48:49;19.63;;;17.55;;
39880;SDS011;25554;44.954;10.068;2023-07-31T01:51:16;20.67;;;17.67;;
39880;SDS011;25554;44.954;10.068;2023-07-31T01:53:42;18.55;;;16.58;;
39880;SDS011;25554;44.954;10.068;2023-07-31T01:56:09;18.63;;;16.70;;
39880;SDS011;25554;44.954;10.068;2023-07-31T01:58:36;19.48;;;17.48;;
39880;SDS011;25554;44.954;10.068;2023-07-31T02:01:02;20.95;;;18.75;;
39880;SDS011;25554;44.954;10.068;2023-07-31T02:03:29;20.13;;;17.90;;
39880;SDS011;25554;44.954;10.068;2023-07-31T02:05:55;20.83;;;16.42;;
39880;SDS011;25554;44.954;10.068;2023-07-31T02:08:24;19.77;;;16.75;;
39880;SDS011;25554;44.954;10.068;2023-07-31T02:10:51;18.40;;;16.58;;
39880;SDS011;25554;44.954;10.068;2023-07-31T02:13:18;19.27;;;17.17;;
39880;SDS011;25554;44.954;10.068;2023-07-31T02:15:45;23.13;;;16.65;;
39880;SDS011;25554;44.954;10.068;2023-07-31T02:18:11;21.70;;;16.95;;
39880;SDS011;25554;44.954;10.068;2023-07-31T02:20:37;18.63;;;16.65;;
39880;SDS011;25554;44.954;10.068;2023-07-31T02:25:30;19.30;;;16.83;;
39880;SDS011;25554;44.954;10.068;2023-07-31T02:27:57;19.65;;;16.70;;
39880;SDS011;25554;44.954;10.068;2023-07-31T02:30:23;19.63;;;16.40;;
39880;SDS011;25554;44.954;10.068;2023-07-31T02:32:50;19.35;;;17.25;;
39880;SDS011;25554;44.954;10.068;2023-07-31T02:35:16;19.23;;;16.73;;
39880;SDS011;25554;44.954;10.068;2023-07-31T02:37:44;18.48;;;16.52;;
39880;SDS011;25554;44.954;10.068;2023-07-31T02:40:10;20.77;;;17.13;;
39880;SDS011;25554;44.954;10.068;2023-07-31T02:42:37;23.70;;;17.65;;
39880;SDS011;25554;44.954;10.068;2023-07-31T02:45:04;18.30;;;16.00;;
39880;SDS011;25554;44.954;10.068;2023-07-31T02:47:31;21.35;;;16.20;;
39880;SDS011;25554;44.954;10.068;2023-07-31T02:54:51;20.13;;;15.57;;
39880;SDS011;25554;44.954;10.068;2023-07-31T02:57:18;17.83;;;15.77;;
39880;SDS011;25554;44.954;10.068;2023-07-31T03:02:10;18.80;;;14.68;;
39880;SDS011;25554;44.954;10.068;2023-07-31T03:04:38;18.27;;;15.02;;
39880;SDS011;25554;44.954;10.068;2023-07-31T03:07:05;17.35;;;14.25;;
39880;SDS011;25554;44.954;10.068;2023-07-31T03:09:32;19.45;;;15.10;;
39880;SDS011;25554;44.954;10.068;2023-07-31T03:11:58;23.45;;;16.85;;
39880;SDS011;25554;44.954;10.068;2023-07-31T03:14:25;18.15;;;15.98;;
39880;SDS011;25554;44.954;10.068;2023-07-31T03:16:52;22.75;;;16.25;;
39880;SDS011;25554;44.954;10.068;2023-07-31T03:19:19;18.50;;;15.30;;
39880;SDS011;25554;44.954;10.068;2023-07-31T03:21:45;18.15;;;15.40;;
39880;SDS011;25554;44.954;10.068;2023-07-31T03:24:12;17.27;;;15.20;;
39880;SDS011;25554;44.954;10.068;2023-07-31T03:26:38;16.58;;;14.30;;
39880;SDS011;25554;44.954;10.068;2023-07-31T03:29:07;17.83;;;15.30;;
39880;SDS011;25554;44.954;10.068;2023-07-31T03:31:34;21.48;;;14.90;;
39880;SDS011;25554;44.954;10.068;2023-07-31T03:36:26;20.70;;;14.05;;
39880;SDS011;25554;44.954;10.068;2023-07-31T03:38:53;18.70;;;14.27;;
39880;SDS011;25554;44.954;10.068;2023-07-31T03:41:20;17.63;;;14.43;;
39880;SDS011;25554;44.954;10.068;2023-07-31T03:43:49;17.60;;;13.88;;
39880;SDS011;25554;44.954;10.068;2023-07-31T03:46:22;16.45;;;14.73;;
39880;SDS011;25554;44.954;10.068;2023-07-31T03:48:48;15.35;;;13.23;;
39880;SDS011;25554;44.954;10.068;2023-07-31T03:51:15;15.68;;;12.52;;
39880;SDS011;25554;44.954;10.068;2023-07-31T03:53:43;18.98;;;13.00;;
39880;SDS011;25554;44.954;10.068;2023-07-31T03:56:10;15.75;;;13.98;;
39880;SDS011;25554;44.954;10.068;2023-07-31T03:58:36;15.63;;;12.88;;
39880;SDS011;25554;44.954;10.068;2023-07-31T04:01:03;18.17;;;12.50;;
39880;SDS011;25554;44.954;10.068;2023-07-31T04:03:30;15.25;;;13.13;;
39880;SDS011;25554;44.954;10.068;2023-07-31T04:05:56;13.82;;;12.43;;
39880;SDS011;25554;44.954;10.068;2023-07-31T04:08:23;16.55;;;13.15;;
39880;SDS011;25554;44.954;10.068;2023-07-31T04:10:50;16.08;;;13.55;;
39880;SDS011;25554;44.954;10.068;2023-07-31T04:13:16;15.73;;;13.38;;
39880;SDS011;25554;44.954;10.068;2023-07-31T04:15:47;13.75;;;11.23;;
39880;SDS011;25554;44.954;10.068;2023-07-31T04:18:15;14.63;;;12.77;;
39880;SDS011;25554;44.954;10.068;2023-07-31T04:20:41;17.25;;;13.43;;
39880;SDS011;25554;44.954;10.068;2023-07-31T04:23:08;13.77;;;11.85;;
39880;SDS011;25554;44.954;10.068;2023-07-31T04:25:34;16.23;;;13.77;;
39880;SDS011;25554;44.954;10.068;2023-07-31T04:28:01;21.48;;;14.13;;
39880;SDS011;25554;44.954;10.068;2023-07-31T04:30:27;16.45;;;13.13;;
39880;SDS011;25554;44.954;10.068;2023-07-31T04:32:54;14.18;;;12.50;;
39880;SDS011;25554;44.954;10.068;2023-07-31T04:35:20;16.63;;;13.25;;
39880;SDS011;25554;44.954;10.068;2023-07-31T04:37:47;16.38;;;13.40;;
39880;SDS011;25554;44.954;10.068;2023-07-31T04:40:15;19.35;;;14.23;;
39880;SDS011;25554;44.954;10.068;2023-07-31T04:42:41;14.38;;;11.65;;
39880;SDS011;25554;44.954;10.068;2023-07-31T04:45:08;19.33;;;14.55;;
39880;SDS011;25554;44.954;10.068;2023-07-31T04:47:35;15.48;;;13.80;;
39880;SDS011;25554;44.954;10.068;2023-07-31T04:50:01;18.02;;;14.48;;
39880;SDS011;25554;44.954;10.068;2023-07-31T04:52:28;24.42;;;14.20;;
39880;SDS011;25554;44.954;10.068;2023-07-31T04:54:55;20.33;;;15.27;;
39880;SDS011;25554;44.954;10.068;2023-07-31T04:57:21;20.05;;;14.25;;
39880;SDS011;25554;44.954;10.068;2023-07-31T04:59:48;18.60;;;14.98;;
39880;SDS011;25554;44.954;10.068;2023-07-31T05:02:14;21.15;;;15.48;;
39880;SDS011;25554;44.954;10.068;2023-07-31T05:04:41;16.25;;;13.73;;
39880;SDS011;25554;44.954;10.068;2023-07-31T05:07:07;17.40;;;13.65;;
39880;SDS011;25554;44.954;10.068;2023-07-31T05:09:34;15.15;;;13.73;;
39880;SDS011;25554;44.954;10.068;2023-07-31T05:12:01;15.45;;;13.77;;
39880;SDS011;25554;44.954;10.068;2023-07-31T05:14:27;20.92;;;15.15;;
39880;SDS011;25554;44.954;10.068;2023-07-31T05:16:54;27.77;;;23.33;;
39880;SDS011;25554;44.954;10.068;2023-07-31T05:19:20;19.90;;;16.10;;
39880;SDS011;25554;44.954;10.068;2023-07-31T05:21:47;25.77;;;15.68;;
39880;SDS011;25554;44.954;10.068;2023-07-31T05:24:13;17.00;;;13.32;;
39880;SDS011;25554;44.954;10.068;2023-07-31T05:26:40;24.83;;;14.88;;
39880;SDS011;25554;44.954;10.068;2023-07-31T05:29:06;18.75;;;13.50;;
39880;SDS011;25554;44.954;10.068;2023-07-31T05:31:35;20.42;;;12.02;;
39880;SDS011;25554;44.954;10.068;2023-07-31T05:34:04;17.25;;;11.63;;
39880;SDS011;25554;44.954;10.068;2023-07-31T05:36:30;11.93;;;9.30;;
39880;SDS011;25554;44.954;10.068;2023-07-31T05:38:57;11.90;;;8.20;;
39880;SDS011;25554;44.954;10.068;2023-07-31T05:41:23;12.52;;;9.25;;
39880;SDS011;25554;44.954;10.068;2023-07-31T05:43:50;12.88;;;9.25;;
39880;SDS011;25554;44.954;10.068;2023-07-31T05:46:17;10.48;;;8.55;;
39880;SDS011;25554;44.954;10.068;2023-07-31T05:48:43;10.15;;;8.98;;
39880;SDS011;25554;44.954;10.068;2023-07-31T05:51:10;12.95;;;9.45;;
39880;SDS011;25554;44.954;10.068;2023-07-31T05:53:37;13.00;;;9.30;;
39880;SDS011;25554;44.954;10.068;2023-07-31T05:56:13;10.70;;;9.63;;
39880;SDS011;25554;44.954;10.068;2023-07-31T05:58:40;11.30;;;9.07;;
39880;SDS011;25554;44.954;10.068;2023-07-31T06:01:07;15.05;;;10.40;;
39880;SDS011;25554;44.954;10.068;2023-07-31T06:03:33;12.15;;;10.82;;
39880;SDS011;25554;44.954;10.068;2023-07-31T06:06:00;13.43;;;9.93;;
39880;SDS011;25554;44.954;10.068;2023-07-31T06:08:26;13.32;;;10.60;;
39880;SDS011;25554;44.954;10.068;2023-07-31T06:10:53;14.25;;;11.23;;
39880;SDS011;25554;44.954;10.068;2023-07-31T06:13:19;13.38;;;9.60;;
39880;SDS011;25554;44.954;10.068;2023-07-31T06:15:46;14.73;;;11.63;;
39880;SDS011;25554;44.954;10.068;2023-07-31T06:18:13;17.15;;;12.23;;
39880;SDS011;25554;44.954;10.068;2023-07-31T06:20:39;15.38;;;12.13;;
39880;SDS011;25554;44.954;10.068;2023-07-31T06:23:06;14.52;;;11.77;;
39880;SDS011;25554;44.954;10.068;2023-07-31T06:25:32;13.70;;;11.85;;
39880;SDS011;25554;44.954;10.068;2023-07-31T06:27:59;13.30;;;11.98;;
39880;SDS011;25554;44.954;10.068;2023-07-31T06:30:26;12.00;;;10.85;;
39880;SDS011;25554;44.954;10.068;2023-07-31T06:32:52;11.90;;;10.70;;
39880;SDS011;25554;44.954;10.068;2023-07-31T06:35:19;14.68;;;11.38;;
39880;SDS011;25554;44.954;10.068;2023-07-31T06:37:45;15.15;;;12.13;;
39880;SDS011;25554;44.954;10.068;2023-07-31T06:40:12;12.55;;;10.85;;
39880;SDS011;25554;44.954;10.068;2023-07-31T06:42:38;11.52;;;9.45;;
39880;SDS011;25554;44.954;10.068;2023-07-31T06:45:05;12.90;;;10.35;;
39880;SDS011;25554;44.954;10.068;2023-07-31T06:47:33;11.13;;;9.88;;
39880;SDS011;25554;44.954;10.068;2023-07-31T06:49:59;12.82;;;9.25;;
39880;SDS011;25554;44.954;10.068;2023-07-31T06:52:26;13.75;;;9.93;;
39880;SDS011;25554;44.954;10.068;2023-07-31T06:57:48;11.40;;;9.00;;
39880;SDS011;25554;44.954;10.068;2023-07-31T07:00:16;8.85;;;7.57;;
39880;SDS011;25554;44.954;10.068;2023-07-31T07:02:43;11.48;;;7.78;;
39880;SDS011;25554;44.954;10.068;2023-07-31T07:05:09;11.85;;;8.88;;
39880;SDS011;25554;44.954;10.068;2023-07-31T07:07:36;11.32;;;6.35;;
39880;SDS011;25554;44.954;10.068;2023-07-31T07:10:03;8.73;;;6.38;;
39880;SDS011;25554;44.954;10.068;2023-07-31T07:12:31;8.32;;;6.47;;
39880;SDS011;25554;44.954;10.068;2023-07-31T07:14:57;9.60;;;6.25;;
39880;SDS011;25554;44.954;10.068;2023-07-31T07:17:24;6.72;;;6.05;;
39880;SDS011;25554;44.954;10.068;2023-07-31T07:19:51;8.10;;;7.10;;
39880;SDS011;25554;44.954;10.068;2023-07-31T07:22:18;8.60;;;5.90;;
39880;SDS011;25554;44.954;10.068;2023-07-31T07:24:44;7.53;;;5.40;;
39880;SDS011;25554;44.954;10.068;2023-07-31T07:27:11;7.85;;;4.75;;
39880;SDS011;25554;44.954;10.068;2023-07-31T07:29:37;6.45;;;5.55;;
39880;SDS011;25554;44.954;10.068;2023-07-31T07:32:05;6.53;;;4.10;;
39880;SDS011;25554;44.954;10.068;2023-07-31T07:34:31;6.45;;;5.55;;
39880;SDS011;25554;44.954;10.068;2023-07-31T07:36:58;5.53;;;4.75;;
39880;SDS011;25554;44.954;10.068;2023-07-31T07:39:24;8.65;;;5.85;;
39880;SDS011;25554;44.954;10.068;2023-07-31T07:41:51;7.88;;;5.68;;
39880;SDS011;25554;44.954;10.068;2023-07-31T07:44:18;6.13;;;5.53;;
39880;SDS011;25554;44.954;10.068;2023-07-31T07:46:45;8.30;;;5.57;;
39880;SDS011;25554;44.954;10.068;2023-07-31T07:49:11;7.15;;;5.40;;
39880;SDS011;25554;44.954;10.068;2023-07-31T07:51:38;5.78;;;4.68;;
39880;SDS011;25554;44.954;10.068;2023-07-31T07:54:04;5.30;;;4.45;;
39880;SDS011;25554;44.954;10.068;2023-07-31T07:56:32;5.95;;;4.72;;
39880;SDS011;25554;44.954;10.068;2023-07-31T07:58:59;7.78;;;4.30;;
39880;SDS011;25554;44.954;10.068;2023-07-31T08:01:25;9.13;;;4.80;;
39880;SDS011;25554;44.954;10.068;2023-07-31T08:03:52;5.75;;;3.30;;
39880;SDS011;25554;44.954;10.068;2023-07-31T08:06:18;4.57;;;3.88;;
39880;SDS011;25554;44.954;10.068;2023-07-31T08:08:45;5.55;;;3.55;;
39880;SDS011;25554;44.954;10.068;2023-07-31T08:11:12;3.90;;;3.03;;
39880;SDS011;25554;44.954;10.068;2023-07-31T08:13:39;3.38;;;2.88;;
39880;SDS011;25554;44.954;10.068;2023-07-31T08:16:06;4.35;;;3.05;;
39880;SDS011;25554;44.954;10.068;2023-07-31T08:18:34;3.08;;;2.75;;
39880;SDS011;25554;44.954;10.068;2023-07-31T08:21:03;3.75;;;3.00;;
39880;SDS011;25554;44.954;10.068;2023-07-31T08:23:29;3.20;;;2.78;;
39880;SDS011;25554;44.954;10.068;2023-07-31T08:25:56;4.18;;;3.10;;
39880;SDS011;25554;44.954;10.068;2023-07-31T08:28:22;3.72;;;2.70;;
39880;SDS011;25554;44.954;10.068;2023-07-31T08:30:49;5.75;;;3.42;;
39880;SDS011;25554;44.954;10.068;2023-07-31T08:33:16;5.55;;;3.08;;
39880;SDS011;25554;44.954;10.068;2023-07-31T08:35:42;12.60;;;9.55;;
39880;SDS011;25554;44.954;10.068;2023-07-31T08:38:09;3.80;;;3.08;;
39880;SDS011;25554;44.954;10.068;2023-07-31T08:40:36;3.90;;;3.42;;
39880;SDS011;25554;44.954;10.068;2023-07-31T08:43:06;6.30;;;2.85;;
39880;SDS011;25554;44.954;10.068;2023-07-31T08:45:35;4.53;;;3.63;;
39880;SDS011;25554;44.954;10.068;2023-07-31T08:48:01;2.60;;;2.40;;
39880;SDS011;25554;44.954;10.068;2023-07-31T08:50:28;7.35;;;3.92;;
39880;SDS011;25554;44.954;10.068;2023-07-31T08:52:54;4.65;;;3.75;;
39880;SDS011;25554;44.954;10.068;2023-07-31T08:55:21;4.10;;;2.25;;
39880;SDS011;25554;44.954;10.068;2023-07-31T08:57:51;4.53;;;2.80;;
39880;SDS011;25554;44.954;10.068;2023-07-31T09:00:20;6.03;;;5.28;;
39880;SDS011;25554;44.954;10.068;2023-07-31T09:02:57;3.92;;;2.65;;
39880;SDS011;25554;44.954;10.068;2023-07-31T09:05:28;4.15;;;2.45;;
39880;SDS011;25554;44.954;10.068;2023-07-31T09:07:56;2.55;;;2.35;;
39880;SDS011;25554;44.954;10.068;2023-07-31T09:10:23;3.75;;;2.50;;
39880;SDS011;25554;44.954;10.068;2023-07-31T09:12:51;4.22;;;2.50;;
39880;SDS011;25554;44.954;10.068;2023-07-31T09:15:18;2.75;;;2.55;;
39880;SDS011;25554;44.954;10.068;2023-07-31T09:17:45;2.30;;;2.10;;
39880;SDS011;25554;44.954;10.068;2023-07-31T09:20:19;4.68;;;2.22;;
39880;SDS011;25554;44.954;10.068;2023-07-31T09:22:48;3.25;;;2.95;;
39880;SDS011;25554;44.954;10.068;2023-07-31T09:25:16;2.60;;;2.40;;
39880;SDS011;25554;44.954;10.068;2023-07-31T09:27:50;6.47;;;2.63;;
39880;SDS011;25554;44.954;10.068;2023-07-31T09:30:20;7.28;;;2.33;;
39880;SDS011;25554;44.954;10.068;2023-07-31T09:32:48;5.05;;;2.03;;
39880;SDS011;25554;44.954;10.068;2023-07-31T09:37:48;4.22;;;2.30;;
39880;SDS011;25554;44.954;10.068;2023-07-31T09:40:28;4.93;;;2.40;;
39880;SDS011;25554;44.954;10.068;2023-07-31T09:42:57;3.72;;;2.38;;
39880;SDS011;25554;44.954;10.068;2023-07-31T09:45:24;5.03;;;2.80;;
39880;SDS011;25554;44.954;10.068;2023-07-31T09:47:51;2.53;;;2.22;;
39880;SDS011;25554;44.954;10.068;2023-07-31T09:50:20;2.42;;;2.22;;
39880;SDS011;25554;44.954;10.068;2023-07-31T09:52:48;2.50;;;2.30;;
39880;SDS011;25554;44.954;10.068;2023-07-31T09:55:19;7.22;;;4.20;;
39880;SDS011;25554;44.954;10.068;2023-07-31T09:57:46;2.92;;;2.20;;
39880;SDS011;25554;44.954;10.068;2023-07-31T10:00:15;4.05;;;2.40;;
39880;SDS011;25554;44.954;10.068;2023-07-31T10:02:45;4.82;;;2.70;;
39880;SDS011;25554;44.954;10.068;2023-07-31T10:05:13;6.47;;;2.38;;
39880;SDS011;25554;44.954;10.068;2023-07-31T10:10:45;6.03;;;3.03;;
39880;SDS011;25554;44.954;10.068;2023-07-31T10:13:12;5.63;;;2.67;;
39880;SDS011;25554;44.954;10.068;2023-07-31T10:15:39;3.67;;;2.10;;
39880;SDS011;25554;44.954;10.068;2023-07-31T10:18:08;3.33;;;2.35;;
39880;SDS011;25554;44.954;10.068;2023-07-31T10:21:02;3.55;;;2.47;;
39880;SDS011;25554;44.954;10.068;2023-07-31T10:23:31;4.25;;;2.80;;
39880;SDS011;25554;44.954;10.068;2023-07-31T10:25:58;3.83;;;2.92;;
39880;SDS011;25554;44.954;10.068;2023-07-31T10:28:25;3.65;;;2.80;;
39880;SDS011;25554;44.954;10.068;2023-07-31T10:30:55;4.18;;;2.90;;
39880;SDS011;25554;44.954;10.068;2023-07-31T10:33:21;4.55;;;2.65;;
39880;SDS011;25554;44.954;10.068;2023-07-31T10:35:48;4.05;;;2.42;;
39880;SDS011;25554;44.954;10.068;2023-07-31T10:38:17;6.18;;;2.58;;
39880;SDS011;25554;44.954;10.068;2023-07-31T10:40:46;3.42;;;2.70;;
39880;SDS011;25554;44.954;10.068;2023-07-31T10:43:23;3.53;;;2.83;;
39880;SDS011;25554;44.954;10.068;2023-07-31T10:45:51;3.22;;;2.75;;
39880;SDS011;25554;44.954;10.068;2023-07-31T10:48:18;3.15;;;2.30;;
39880;SDS011;25554;44.954;10.068;2023-07-31T10:50:48;3.38;;;3.08;;
39880;SDS011;25554;44.954;10.068;2023-07-31T10:53:25;2.88;;;2.50;;
39880;SDS011;25554;44.954;10.068;2023-07-31T10:55:52;5.05;;;3.38;;
39880;SDS011;25554;44.954;10.068;2023-07-31T10:58:19;4.72;;;2.90;;
39880;SDS011;25554;44.954;10.068;2023-07-31T11:00:48;2.60;;;2.40;;
39880;SDS011;25554;44.954;10.068;2023-07-31T11:03:16;3.72;;;2.78;;
39880;SDS011;25554;44.954;10.068;2023-07-31T11:08:17;3.08;;;2.67;;
39880;SDS011;25554;44.954;10.068;2023-07-31T11:10:45;2.70;;;2.50;;
39880;SDS011;25554;44.954;10.068;2023-07-31T11:13:12;4.72;;;3.45;;
39880;SDS011;25554;44.954;10.068;2023-07-31T11:15:39;2.88;;;2.67;;
39880;SDS011;25554;44.954;10.068;2023-07-31T11:18:05;4.25;;;2.88;;
39880;SDS011;25554;44.954;10.068;2023-07-31T11:20:33;4.80;;;3.20;;
39880;SDS011;25554;44.954;10.068;2023-07-31T11:23:05;4.03;;;2.97;;
39880;SDS011;25554;44.954;10.068;2023-07-31T11:25:32;3.17;;;2.53;;
39880;SDS011;25554;44.954;10.068;2023-07-31T11:28:09;4.45;;;3.08;;
39880;SDS011;25554;44.954;10.068;2023-07-31T11:30:37;7.47;;;2.60;;
39880;SDS011;25554;44.954;10.068;2023-07-31T11:33:04;7.32;;;2.95;;
39880;SDS011;25554;44.954;10.068;2023-07-31T11:35:35;5.15;;;2.70;;
39880;SDS011;25554;44.954;10.068;2023-07-31T11:38:01;3.53;;;3.05;;
39880;SDS011;25554;44.954;10.068;2023-07-31T11:40:28;5.75;;;3.25;;
39880;SDS011;25554;44.954;10.068;2023-07-31T11:42:56;2.72;;;2.50;;
39880;SDS011;25554;44.954;10.068;2023-07-31T11:45:24;5.55;;;2.92;;
39880;SDS011;25554;44.954;10.068;2023-07-31T11:47:51;6.82;;;2.85;;
39880;SDS011;25554;44.954;10.068;2023-07-31T11:50:18;3.55;;;3.00;;
39880;SDS011;25554;44.954;10.068;2023-07-31T11:52:45;5.90;;;2.67;;
39880;SDS011;25554;44.954;10.068;2023-07-31T11:55:12;3.78;;;2.88;;
39880;SDS011;25554;44.954;10.068;2023-07-31T11:57:40;4.00;;;2.95;;
39880;SDS011;25554;44.954;10.068;2023-07-31T12:00:08;5.82;;;3.33;;
39880;SDS011;25554;44.954;10.068;2023-07-31T12:02:36;4.53;;;3.25;;
39880;SDS011;25554;44.954;10.068;2023-07-31T12:05:06;4.07;;;2.92;;
39880;SDS011;25554;44.954;10.068;2023-07-31T12:12:55;4.82;;;2.80;;
39880;SDS011;25554;44.954;10.068;2023-07-31T12:15:22;4.88;;;2.72;;
39880;SDS011;25554;44.954;10.068;2023-07-31T12:17:54;3.55;;;3.05;;
39880;SDS011;25554;44.954;10.068;2023-07-31T12:20:21;3.75;;;3.30;;
39880;SDS011;25554;44.954;10.068;2023-07-31T12:22:47;2.75;;;2.50;;
39880;SDS011;25554;44.954;10.068;2023-07-31T12:25:17;5.38;;;2.85;;
39880;SDS011;25554;44.954;10.068;2023-07-31T12:27:44;3.45;;;2.95;;
39880;SDS011;25554;44.954;10.068;2023-07-31T12:30:27;3.55;;;2.88;;
39880;SDS011;25554;44.954;10.068;2023-07-31T12:32:54;3.92;;;3.10;;
39880;SDS011;25554;44.954;10.068;2023-07-31T12:35:20;5.40;;;3.00;;
39880;SDS011;25554;44.954;10.068;2023-07-31T12:37:47;4.45;;;2.70;;
39880;SDS011;25554;44.954;10.068;2023-07-31T12:40:13;3.03;;;2.70;;
39880;SDS011;25554;44.954;10.068;2023-07-31T12:42:41;4.28;;;2.80;;
39880;SDS011;25554;44.954;10.068;2023-07-31T12:45:07;3.40;;;2.50;;
39880;SDS011;25554;44.954;10.068;2023-07-31T12:47:34;6.45;;;3.03;;
39880;SDS011;25554;44.954;10.068;2023-07-31T12:50:01;3.78;;;3.03;;
39880;SDS011;25554;44.954;10.068;2023-07-31T12:52:27;5.55;;;3.33;;
39880;SDS011;25554;44.954;10.068;2023-07-31T12:54:54;4.45;;;3.60;;
39880;SDS011;25554;44.954;10.068;2023-07-31T12:57:21;3.00;;;2.70;;
39880;SDS011;25554;44.954;10.068;2023-07-31T12:59:47;3.47;;;2.35;;
39880;SDS011;25554;44.954;10.068;2023-07-31T13:02:14;6.10;;;2.80;;
39880;SDS011;25554;44.954;10.068;2023-07-31T13:04:40;3.17;;;2.88;;
39880;SDS011;25554;44.954;10.068;2023-07-31T13:07:07;5.30;;;2.65;;
39880;SDS011;25554;44.954;10.068;2023-07-31T13:09:34;3.47;;;2.70;;
39880;SDS011;25554;44.954;10.068;2023-07-31T13:12:00;5.05;;;3.10;;
39880;SDS011;25554;44.954;10.068;2023-07-31T13:14:27;4.32;;;2.55;;
39880;SDS011;25554;44.954;10.068;2023-07-31T13:16:54;3.47;;;3.00;;
39880;SDS011;25554;44.954;10.068;2023-07-31T13:19:20;4.63;;;2.78;;
39880;SDS011;25554;44.954;10.068;2023-07-31T13:21:47;5.07;;;3.00;;
39880;SDS011;25554;44.954;10.068;2023-07-31T13:24:13;3.25;;;2.97;;
39880;SDS011;25554;44.954;10.068;2023-07-31T13:26:40;4.70;;;2.75;;
39880;SDS011;25554;44.954;10.068;2023-07-31T13:29:06;2.63;;;2.42;;
39880;SDS011;25554;44.954;10.068;2023-07-31T13:31:33;6.78;;;2.95;;
39880;SDS011;25554;44.954;10.068;2023-07-31T13:33:59;4.90;;;2.67;;
39880;SDS011;25554;44.954;10.068;2023-07-31T13:36:26;3.10;;;2.80;;
39880;SDS011;25554;44.954;10.068;2023-07-31T13:38:52;3.00;;;2.80;;
39880;SDS011;25554;44.954;10.068;2023-07-31T13:41:19;3.38;;;2.80;;
39880;SDS011;25554;44.954;10.068;2023-07-31T13:43:45;3.08;;;2.88;;
39880;SDS011;25554;44.954;10.068;2023-07-31T13:46:12;2.97;;;2.78;;
39880;SDS011;25554;44.954;10.068;2023-07-31T13:48:39;2.92;;;2.38;;
39880;SDS011;25554;44.954;10.068;2023-07-31T13:51:05;4.70;;;3.05;;
39880;SDS011;25554;44.954;10.068;2023-07-31T13:53:32;2.70;;;2.50;;
39880;SDS011;25554;44.954;10.068;2023-07-31T13:55:58;4.43;;;3.03;;
39880;SDS011;25554;44.954;10.068;2023-07-31T13:58:25;3.05;;;2.83;;
39880;SDS011;25554;44.954;10.068;2023-07-31T14:00:52;6.97;;;2.75;;
39880;SDS011;25554;44.954;10.068;2023-07-31T14:03:18;2.78;;;2.58;;
39880;SDS011;25554;44.954;10.068;2023-07-31T14:05:45;3.42;;;2.70;;
39880;SDS011;25554;44.954;10.068;2023-07-31T14:08:11;3.72;;;2.47;;
39880;SDS011;25554;44.954;10.068;2023-07-31T14:10:38;3.00;;;2.80;;
39880;SDS011;25554;44.954;10.068;2023-07-31T14:13:04;2.72;;;2.50;;
39880;SDS011;25554;44.954;10.068;2023-07-31T14:15:31;6.55;;;2.70;;
39880;SDS011;25554;44.954;10.068;2023-07-31T14:17:57;2.65;;;2.45;;
39880;SDS011;25554;44.954;10.068;2023-07-31T14:20:24;4.70;;;3.45;;
39880;SDS011;25554;44.954;10.068;2023-07-31T14:22:50;3.15;;;2.70;;
39880;SDS011;25554;44.954;10.068;2023-07-31T14:25:17;3.72;;;3.00;;
39880;SDS011;25554;44.954;10.068;2023-07-31T14:27:44;3.88;;;2.72;;
39880;SDS011;25554;44.954;10.068;2023-07-31T14:30:10;2.80;;;2.47;;
39880;SDS011;25554;44.954;10.068;2023-07-31T14:32:37;2.92;;;2.60;;
39880;SDS011;25554;44.954;10.068;2023-07-31T14:35:03;2.97;;;2.78;;
39880;SDS011;25554;44.954;10.068;2023-07-31T14:37:37;3.20;;;2.60;;
39880;SDS011;25554;44.954;10.068;2023-07-31T14:40:04;3.85;;;2.95;;
39880;SDS011;25554;44.954;10.068;2023-07-31T14:42:30;2.75;;;2.55;;
39880;SDS011;25554;44.954;10.068;2023-07-31T14:44:57;6.20;;;3.42;;
39880;SDS011;25554;44.954;10.068;2023-07-31T14:47:23;3.03;;;2.70;;
39880;SDS011;25554;44.954;10.068;2023-07-31T14:49:50;3.38;;;2.63;;
39880;SDS011;25554;44.954;10.068;2023-07-31T14:52:16;2.90;;;2.60;;
39880;SDS011;25554;44.954;10.068;2023-07-31T14:57:44;3.78;;;3.30;;
39880;SDS011;25554;44.954;10.068;2023-07-31T15:09:49;3.15;;;2.60;;
39880;SDS011;25554;44.954;10.068;2023-07-31T15:12:17;3.90;;;2.70;;
39880;SDS011;25554;44.954;10.068;2023-07-31T15:14:43;3.42;;;3.13;;
39880;SDS011;25554;44.954;10.068;2023-07-31T15:17:10;3.47;;;3.17;;